Time;durP1;ratioP1;P1;durP2;ratioP2;P2;SDS_P1;SDS_P2;PMS_P1;PMS_P2;Temp;Humidity;BMP_temperature;BMP_pressure;BME280_temperature;BME280_humidity;BME280_pressure;Samples;Min_cycle;Max_cycle;Signal;HPM_P1;HPM_P2
2023/04/20 00:00:10;;;;;;;3.22;2.22;;;;;;;;;;5053801;28;20021;-65
2023/04/20 00:02:37;;;;;;;3.08;2.10;;;;;;;;;;5053763;28;20532;-65
2023/04/20 00:05:07;;;;;;;4.57;2.30;;;;;;;;;;5054605;28;20021;-65
2023/04/20 00:07:34;;;;;;;5.68;2.10;;;;;;;;;;5054378;28;20024;-65
2023/04/20 00:10:01;;;;;;;3.45;2.10;;;;;;;;;;5054047;28;20019;-64
2023/04/20 00:12:27;;;;;;;4.22;2.13;;;;;;;;;;5053912;28;20021;-65
2023/04/20 00:14:54;;;;;;;3.72;1.95;;;;;;;;;;5053549;28;20505;-65
2023/04/20 00:17:20;;;;;;;3.95;2.20;;;;;;;;;;5053523;28;20029;-65
2023/04/20 00:19:47;;;;;;;6.68;2.30;;;;;;;;;;5053310;28;20385;-65
2023/04/20 00:22:13;;;;;;;3.72;1.98;;;;;;;;;;5053932;28;20020;-65
2023/04/20 00:24:39;;;;;;;4.45;2.15;;;;;;;;;;5054172;28;20032;-65
2023/04/20 00:27:06;;;;;;;3.90;2.15;;;;;;;;;;5053494;28;20063;-65
2023/04/20 00:29:32;;;;;;;3.28;2.30;;;;;;;;;;5052541;28;20040;-65
2023/04/20 00:31:58;;;;;;;3.03;1.95;;;;;;;;;;5052066;28;20045;-65
2023/04/20 00:34:25;;;;;;;4.60;2.25;;;;;;;;;;5053347;28;20025;-66
2023/04/20 00:36:51;;;;;;;4.68;2.00;;;;;;;;;;5053241;28;20491;-65
2023/04/20 00:39:17;;;;;;;5.97;2.60;;;;;;;;;;5053312;28;20035;-65
2023/04/20 00:41:44;;;;;;;3.22;2.15;;;;;;;;;;5053700;28;20021;-65
2023/04/20 00:44:12;;;;;;;8.20;2.05;;;;;;;;;;5053226;28;20029;-65
2023/04/20 00:46:40;;;;;;;3.20;2.08;;;;;;;;;;5053936;28;20391;-65
2023/04/20 00:49:07;;;;;;;8.20;2.20;;;;;;;;;;5053470;28;20025;-65
2023/04/20 00:51:34;;;;;;;3.88;2.17;;;;;;;;;;5053015;28;20051;-65
2023/04/20 00:54:01;;;;;;;2.30;1.98;;;;;;;;;;5052557;28;20508;-65
2023/04/20 00:56:27;;;;;;;4.28;2.20;;;;;;;;;;5052849;28;20025;-65
2023/04/20 00:58:54;;;;;;;3.00;2.47;;;;;;;;;;5052905;28;20024;-65
2023/04/20 01:01:21;;;;;;;3.78;2.05;;;;;;;;;;5052651;28;20408;-65
2023/04/20 01:03:47;;;;;;;5.95;2.40;;;;;;;;;;5053443;28;20023;-65
2023/04/20 01:06:13;;;;;;;4.10;2.22;;;;;;;;;;5053008;28;20029;-65
2023/04/20 01:08:47;;;;;;;2.50;2.05;;;;;;;;;;5052664;28;20035;-65
2023/04/20 01:11:13;;;;;;;4.70;2.20;;;;;;;;;;5052097;28;20039;-65
2023/04/20 01:13:40;;;;;;;3.92;2.20;;;;;;;;;;5052300;28;20027;-65
2023/04/20 01:16:06;;;;;;;4.40;2.28;;;;;;;;;;5052256;28;20455;-65
2023/04/20 01:18:43;;;;;;;4.40;2.17;;;;;;;;;;5052880;28;20017;-65
2023/04/20 01:21:10;;;;;;;4.50;2.45;;;;;;;;;;5052265;28;20025;-65
2023/04/20 01:23:36;;;;;;;2.45;2.13;;;;;;;;;;5052960;28;20021;-67
2023/04/20 01:26:09;;;;;;;3.63;2.13;;;;;;;;;;5052633;28;20494;-67
2023/04/20 01:28:36;;;;;;;2.50;1.83;;;;;;;;;;5052297;28;20051;-66
2023/04/20 01:31:03;;;;;;;5.35;2.25;;;;;;;;;;5051963;28;20047;-66
2023/04/20 01:33:29;;;;;;;5.35;2.33;;;;;;;;;;5052231;28;20025;-66
2023/04/20 01:35:56;;;;;;;3.42;2.22;;;;;;;;;;5052114;28;20490;-66
2023/04/20 01:38:23;;;;;;;3.95;2.05;;;;;;;;;;5052248;28;20029;-66
2023/04/20 01:40:50;;;;;;;3.17;2.40;;;;;;;;;;5051641;28;20037;-66
2023/04/20 01:43:16;;;;;;;3.17;2.30;;;;;;;;;;5051511;28;20029;-66
2023/04/20 01:45:43;;;;;;;3.65;2.55;;;;;;;;;;5052099;28;20021;-66
2023/04/20 01:48:09;;;;;;;3.10;2.10;;;;;;;;;;5052327;28;20070;-66
2023/04/20 01:50:35;;;;;;;4.70;2.10;;;;;;;;;;5052211;28;20029;-66
2023/04/20 01:53:02;;;;;;;3.22;2.40;;;;;;;;;;5052859;28;20018;-66
2023/04/20 01:55:28;;;;;;;3.50;2.30;;;;;;;;;;5052787;28;20055;-66
2023/04/20 01:57:54;;;;;;;4.88;2.10;;;;;;;;;;5052386;28;20024;-67
2023/04/20 02:00:21;;;;;;;6.03;2.50;;;;;;;;;;5051982;28;20043;-66
2023/04/20 02:02:47;;;;;;;2.63;2.20;;;;;;;;;;5052440;28;20033;-67
2023/04/20 02:05:13;;;;;;;8.70;2.63;;;;;;;;;;5052135;28;20021;-66
2023/04/20 02:07:40;;;;;;;4.07;2.58;;;;;;;;;;5052488;28;20031;-66
2023/04/20 02:10:06;;;;;;;3.70;2.40;;;;;;;;;;5051778;28;20031;-66
2023/04/20 02:12:32;;;;;;;5.55;2.60;;;;;;;;;;5051686;28;20028;-67
2023/04/20 02:14:59;;;;;;;3.33;2.35;;;;;;;;;;5051893;28;20029;-66
2023/04/20 02:17:25;;;;;;;3.03;2.03;;;;;;;;;;5051374;28;20021;-66
2023/04/20 02:19:51;;;;;;;4.85;2.60;;;;;;;;;;5051844;28;20029;-67
2023/04/20 02:22:18;;;;;;;5.30;2.33;;;;;;;;;;5051517;28;20512;-66
2023/04/20 02:24:44;;;;;;;3.80;2.33;;;;;;;;;;5051718;28;20029;-66
2023/04/20 02:27:11;;;;;;;3.35;2.13;;;;;;;;;;5051555;28;20021;-66
2023/04/20 02:29:37;;;;;;;4.18;2.20;;;;;;;;;;5051525;28;20490;-67
2023/04/20 02:32:03;;;;;;;4.85;2.72;;;;;;;;;;5051598;28;20037;-66
2023/04/20 02:34:30;;;;;;;3.58;2.28;;;;;;;;;;5051730;28;20025;-67
2023/04/20 02:36:56;;;;;;;3.67;2.38;;;;;;;;;;5051797;28;20005;-67
2023/04/20 02:39:22;;;;;;;2.70;2.33;;;;;;;;;;5052020;28;20025;-66
2023/04/20 02:41:49;;;;;;;6.07;3.15;;;;;;;;;;5051978;28;20090;-66
2023/04/20 02:44:15;;;;;;;6.50;2.53;;;;;;;;;;5051400;28;20021;-66
2023/04/20 02:46:41;;;;;;;2.75;2.05;;;;;;;;;;5051530;28;20017;-66
2023/04/20 02:49:08;;;;;;;3.72;2.22;;;;;;;;;;5051376;28;20039;-67
2023/04/20 02:51:34;;;;;;;4.05;2.55;;;;;;;;;;5051563;28;20066;-67
2023/04/20 02:54:00;;;;;;;4.57;2.55;;;;;;;;;;5053434;28;20027;-66
2023/04/20 02:56:27;;;;;;;4.45;2.30;;;;;;;;;;5054979;28;20037;-66
2023/04/20 02:58:53;;;;;;;4.60;2.50;;;;;;;;;;5054919;28;20047;-66
2023/04/20 03:01:20;;;;;;;4.50;2.45;;;;;;;;;;5054983;28;20040;-66
2023/04/20 03:03:46;;;;;;;4.95;2.75;;;;;;;;;;5055578;28;20371;-66
2023/04/20 03:06:12;;;;;;;3.55;2.20;;;;;;;;;;5055108;28;20029;-67
2023/04/20 03:08:39;;;;;;;4.78;2.92;;;;;;;;;;5054831;28;20486;-66
2023/04/20 03:11:05;;;;;;;3.20;2.25;;;;;;;;;;5054661;28;20033;-66
2023/04/20 03:13:32;;;;;;;5.03;2.47;;;;;;;;;;5054871;28;20021;-66
2023/04/20 03:15:58;;;;;;;4.40;3.05;;;;;;;;;;5055001;28;20047;-66
2023/04/20 03:18:24;;;;;;;3.13;2.33;;;;;;;;;;5054340;28;20025;-66
2023/04/20 03:20:51;;;;;;;4.47;2.60;;;;;;;;;;5054757;28;20031;-66
2023/04/20 03:23:18;;;;;;;2.78;2.38;;;;;;;;;;5054481;28;20021;-66
2023/04/20 03:25:45;;;;;;;5.43;2.33;;;;;;;;;;5054465;28;20135;-66
2023/04/20 03:28:11;;;;;;;3.38;2.25;;;;;;;;;;5054210;28;20025;-66
2023/04/20 03:30:37;;;;;;;3.40;2.50;;;;;;;;;;5054035;28;20559;-66
2023/04/20 03:33:04;;;;;;;2.88;2.28;;;;;;;;;;5054116;28;20031;-66
2023/04/20 03:35:31;;;;;;;3.90;2.25;;;;;;;;;;5054886;28;20040;-66
2023/04/20 03:37:57;;;;;;;3.78;2.55;;;;;;;;;;5054525;28;20029;-67
2023/04/20 03:40:23;;;;;;;6.97;2.78;;;;;;;;;;5054743;28;20021;-66
2023/04/20 03:42:50;;;;;;;4.28;2.60;;;;;;;;;;5054313;28;20033;-66
2023/04/20 03:45:16;;;;;;;3.47;2.63;;;;;;;;;;5053775;28;20075;-66
2023/04/20 03:47:43;;;;;;;4.07;2.30;;;;;;;;;;5054073;28;20028;-66
2023/04/20 03:50:09;;;;;;;5.13;2.63;;;;;;;;;;5053496;28;20031;-66
2023/04/20 03:52:35;;;;;;;4.82;2.40;;;;;;;;;;5053833;28;20027;-66
2023/04/20 03:55:02;;;;;;;4.82;2.67;;;;;;;;;;5054243;28;20051;-66
2023/04/20 03:57:28;;;;;;;5.45;2.72;;;;;;;;;;5053784;28;20040;-66
2023/04/20 03:59:55;;;;;;;5.78;2.67;;;;;;;;;;5054323;28;20023;-67
2023/04/20 04:02:21;;;;;;;6.25;2.70;;;;;;;;;;5053816;28;20031;-66
2023/04/20 04:04:47;;;;;;;3.13;2.50;;;;;;;;;;5053971;28;20029;-67
2023/04/20 04:07:13;;;;;;;6.35;3.17;;;;;;;;;;5054198;28;20037;-67
2023/04/20 04:09:40;;;;;;;5.30;2.53;;;;;;;;;;5053537;28;20078;-67
2023/04/20 04:12:06;;;;;;;5.70;2.60;;;;;;;;;;5053535;28;20037;-67
2023/04/20 04:14:33;;;;;;;4.22;3.05;;;;;;;;;;5053583;28;20027;-67
2023/04/20 04:17:00;;;;;;;4.40;2.78;;;;;;;;;;5052875;28;20043;-67
2023/04/20 04:19:26;;;;;;;4.38;2.70;;;;;;;;;;5053410;28;20024;-66
2023/04/20 04:21:52;;;;;;;5.97;2.20;;;;;;;;;;5052324;28;20033;-66
2023/04/20 04:24:20;;;;;;;3.97;2.22;;;;;;;;;;5053921;28;20013;-66
2023/04/20 04:26:47;;;;;;;5.07;2.70;;;;;;;;;;5051836;28;20478;-66
2023/04/20 04:29:14;;;;;;;4.32;2.67;;;;;;;;;;5052948;28;20040;-66
2023/04/20 04:31:41;;;;;;;2.40;2.20;;;;;;;;;;5054060;28;20404;-66
2023/04/20 04:34:07;;;;;;;5.43;3.03;;;;;;;;;;5053212;28;20082;-66
2023/04/20 04:36:35;;;;;;;5.93;3.05;;;;;;;;;;5053174;28;20040;-67
2023/04/20 04:39:01;;;;;;;4.00;2.85;;;;;;;;;;5053508;28;20389;-66
2023/04/20 04:41:28;;;;;;;4.80;2.83;;;;;;;;;;5053665;28;20025;-66
2023/04/20 04:43:54;;;;;;;6.00;2.58;;;;;;;;;;5052614;28;20536;-66
2023/04/20 04:46:21;;;;;;;5.75;2.50;;;;;;;;;;5051754;28;20035;-66
2023/04/20 04:48:47;;;;;;;3.35;2.33;;;;;;;;;;5052836;28;20027;-66
2023/04/20 04:51:14;;;;;;;2.97;2.45;;;;;;;;;;5052505;28;20078;-66
2023/04/20 04:53:43;;;;;;;3.17;2.35;;;;;;;;;;5052587;28;20024;-67
2023/04/20 04:56:10;;;;;;;6.72;2.63;;;;;;;;;;5052361;28;20440;-66
2023/04/20 04:58:36;;;;;;;3.03;2.20;;;;;;;;;;5052228;28;20404;-66
2023/04/20 05:01:03;;;;;;;4.55;2.30;;;;;;;;;;5052376;28;20021;-66
2023/04/20 05:03:29;;;;;;;7.05;2.55;;;;;;;;;;5052438;28;20029;-66
2023/04/20 05:05:55;;;;;;;5.95;2.55;;;;;;;;;;5052642;28;20490;-66
2023/04/20 05:08:23;;;;;;;7.10;2.63;;;;;;;;;;5052542;28;20040;-66
2023/04/20 05:10:50;;;;;;;5.65;2.80;;;;;;;;;;5052329;28;20039;-67
2023/04/20 05:13:16;;;;;;;4.78;2.42;;;;;;;;;;5052954;28;20031;-66
2023/04/20 05:15:42;;;;;;;3.95;2.40;;;;;;;;;;5052313;28;20389;-67
2023/04/20 05:18:08;;;;;;;5.47;2.70;;;;;;;;;;5051272;28;20021;-65
2023/04/20 05:20:35;;;;;;;11.32;3.40;;;;;;;;;;5052369;28;20021;-66
2023/04/20 05:23:01;;;;;;;5.65;2.63;;;;;;;;;;5052252;28;20021;-66
2023/04/20 05:25:27;;;;;;;6.63;3.00;;;;;;;;;;5052006;28;20029;-66
2023/04/20 05:27:54;;;;;;;5.00;2.50;;;;;;;;;;5052044;28;20033;-67
2023/04/20 05:30:20;;;;;;;7.30;2.97;;;;;;;;;;5052143;28;20057;-66
2023/04/20 05:32:47;;;;;;;6.72;3.15;;;;;;;;;;5051867;28;20393;-66
2023/04/20 05:35:13;;;;;;;4.63;3.05;;;;;;;;;;5052022;28;20017;-66
2023/04/20 05:37:39;;;;;;;4.93;2.80;;;;;;;;;;5052037;28;20486;-66
2023/04/20 05:40:06;;;;;;;3.92;3.13;;;;;;;;;;5052495;28;20535;-66
2023/04/20 05:42:32;;;;;;;4.45;3.15;;;;;;;;;;5051918;28;20025;-67
2023/04/20 05:44:59;;;;;;;7.57;3.40;;;;;;;;;;5052043;28;20029;-67
2023/04/20 05:47:26;;;;;;;4.60;3.28;;;;;;;;;;5051972;28;20025;-64
2023/04/20 05:49:53;;;;;;;6.65;4.05;;;;;;;;;;5051443;28;20633;-65
2023/04/20 05:52:19;;;;;;;6.95;4.00;;;;;;;;;;5051839;28;20467;-66
2023/04/20 05:54:45;;;;;;;6.35;4.20;;;;;;;;;;5052102;28;20039;-66
2023/04/20 05:57:12;;;;;;;6.25;3.80;;;;;;;;;;5051951;28;20024;-67
2023/04/20 05:59:38;;;;;;;5.97;3.50;;;;;;;;;;5051826;28;20031;-66
2023/04/20 06:02:05;;;;;;;5.07;3.63;;;;;;;;;;5052006;28;20040;-66
2023/04/20 06:04:31;;;;;;;3.95;3.15;;;;;;;;;;5051604;28;20028;-66
2023/04/20 06:06:58;;;;;;;5.38;3.25;;;;;;;;;;5051897;28;20500;-67
2023/04/20 06:09:25;;;;;;;6.35;2.92;;;;;;;;;;5052701;28;20033;-66
2023/04/20 06:11:51;;;;;;;7.72;2.60;;;;;;;;;;5051354;28;20025;-67
2023/04/20 06:14:18;;;;;;;7.97;3.10;;;;;;;;;;5051841;28;20031;-66
2023/04/20 06:16:44;;;;;;;6.30;2.28;;;;;;;;;;5051856;28;20107;-66
2023/04/20 06:19:11;;;;;;;6.75;2.95;;;;;;;;;;5047514;28;20017;-65
2023/04/20 06:21:37;;;;;;;9.40;2.50;;;;;;;;;;5052533;28;20494;-67
2023/04/20 06:24:03;;;;;;;4.93;2.70;;;;;;;;;;5051018;28;20501;-67
2023/04/20 06:26:30;;;;;;;4.00;2.28;;;;;;;;;;5051245;28;20435;-66
2023/04/20 06:28:56;;;;;;;7.20;2.50;;;;;;;;;;5052561;28;20036;-67
2023/04/20 06:31:22;;;;;;;7.65;2.22;;;;;;;;;;5055066;28;20047;-66
2023/04/20 06:33:49;;;;;;;4.78;2.17;;;;;;;;;;5054491;28;20021;-67
2023/04/20 06:36:15;;;;;;;3.90;2.13;;;;;;;;;;5053997;28;20024;-67
2023/04/20 06:38:42;;;;;;;13.77;2.55;;;;;;;;;;5040807;28;20036;-66
2023/04/20 06:41:08;;;;;;;3.85;2.30;;;;;;;;;;5047882;28;20027;-66
2023/04/20 06:43:34;;;;;;;12.05;2.40;;;;;;;;;;5053312;28;20017;-66
2023/04/20 06:46:00;;;;;;;6.32;2.45;;;;;;;;;;5059305;28;20039;-66
2023/04/20 06:48:27;;;;;;;6.05;2.15;;;;;;;;;;5043275;28;20482;-65
2023/04/20 06:50:53;;;;;;;3.60;2.40;;;;;;;;;;5061437;28;20036;-65
2023/04/20 06:53:19;;;;;;;6.00;2.20;;;;;;;;;;5066121;28;20082;-66
2023/04/20 06:55:46;;;;;;;3.25;2.40;;;;;;;;;;5049138;28;20512;-65
2023/04/20 06:58:12;;;;;;;3.88;2.47;;;;;;;;;;5043275;28;20029;-66
2023/04/20 07:00:39;;;;;;;3.92;2.28;;;;;;;;;;5049482;28;20029;-66
2023/04/20 07:03:05;;;;;;;3.30;2.20;;;;;;;;;;5049518;28;20033;-66
2023/04/20 07:05:31;;;;;;;4.10;1.95;;;;;;;;;;5052261;28;20023;-66
2023/04/20 07:07:58;;;;;;;4.35;2.20;;;;;;;;;;5053709;28;20031;-66
2023/04/20 07:10:24;;;;;;;4.68;2.42;;;;;;;;;;5050264;28;20017;-66
2023/04/20 07:12:51;;;;;;;5.35;2.47;;;;;;;;;;5042294;28;20047;-66
2023/04/20 07:15:17;;;;;;;4.38;2.72;;;;;;;;;;5037547;28;20028;-66
2023/04/20 07:17:43;;;;;;;10.63;2.45;;;;;;;;;;5054016;28;20078;-66
2023/04/20 07:20:10;;;;;;;2.40;2.20;;;;;;;;;;5051156;28;20489;-66
2023/04/20 07:22:36;;;;;;;4.30;2.28;;;;;;;;;;5050618;28;20027;-66
2023/04/20 07:25:03;;;;;;;3.67;2.30;;;;;;;;;;5051878;28;20023;-68
2023/04/20 07:27:32;;;;;;;3.83;2.00;;;;;;;;;;5052639;28;20035;-65
2023/04/20 07:29:58;;;;;;;3.92;2.20;;;;;;;;;;5049726;28;20053;-64
2023/04/20 07:32:25;;;;;;;2.10;1.90;;;;;;;;;;5051645;28;20048;-65
2023/04/20 07:34:51;;;;;;;3.83;2.40;;;;;;;;;;5052170;28;20498;-65
2023/04/20 07:37:17;;;;;;;7.53;2.47;;;;;;;;;;5052210;28;20029;-67
2023/04/20 07:39:44;;;;;;;9.30;2.00;;;;;;;;;;5051420;28;20021;-66
2023/04/20 07:42:10;;;;;;;3.50;2.35;;;;;;;;;;5051484;28;20416;-67
2023/04/20 07:44:37;;;;;;;4.45;2.30;;;;;;;;;;5050695;28;20032;-67
2023/04/20 07:47:03;;;;;;;3.50;2.47;;;;;;;;;;5052026;28;20397;-67
2023/04/20 07:49:29;;;;;;;4.80;2.13;;;;;;;;;;5052232;28;20021;-66
2023/04/20 07:51:56;;;;;;;5.28;2.50;;;;;;;;;;5052177;28;20028;-66
2023/04/20 07:54:22;;;;;;;3.40;2.20;;;;;;;;;;5051107;28;20025;-65
2023/04/20 07:56:48;;;;;;;2.67;2.30;;;;;;;;;;5052274;28;20516;-67
2023/04/20 07:59:15;;;;;;;3.42;2.13;;;;;;;;;;5053160;28;20027;-67
2023/04/20 08:01:41;;;;;;;7.90;2.25;;;;;;;;;;5051920;28;20436;-68
2023/04/20 08:04:07;;;;;;;5.85;2.42;;;;;;;;;;5049997;28;20025;-65
2023/04/20 08:06:33;;;;;;;7.68;2.80;;;;;;;;;;5044319;28;20478;-65
2023/04/20 08:09:00;;;;;;;3.92;1.83;;;;;;;;;;5045096;28;20037;-65
2023/04/20 08:11:26;;;;;;;3.25;2.47;;;;;;;;;;5045082;28;20029;-65
2023/04/20 08:13:52;;;;;;;6.68;2.40;;;;;;;;;;5050841;28;20033;-65
2023/04/20 08:16:19;;;;;;;6.85;2.15;;;;;;;;;;5053873;28;20031;-65
2023/04/20 08:18:45;;;;;;;6.68;2.25;;;;;;;;;;5050984;28;20032;-65
2023/04/20 08:21:12;;;;;;;4.38;2.03;;;;;;;;;;5043981;28;20025;-64
2023/04/20 08:23:38;;;;;;;8.07;2.58;;;;;;;;;;5044739;28;20027;-64
2023/04/20 08:26:05;;;;;;;4.70;2.05;;;;;;;;;;5046243;28;20776;-65
2023/04/20 08:28:31;;;;;;;3.17;2.30;;;;;;;;;;5049732;28;20037;-65
2023/04/20 08:30:57;;;;;;;3.90;2.30;;;;;;;;;;5043556;28;20036;-66
2023/04/20 08:33:24;;;;;;;4.43;2.45;;;;;;;;;;5044902;28;20028;-65
2023/04/20 08:35:50;;;;;;;7.93;2.50;;;;;;;;;;5044743;28;20029;-65
2023/04/20 08:38:17;;;;;;;7.45;2.10;;;;;;;;;;5049831;28;20029;-65
2023/04/20 08:40:43;;;;;;;6.32;2.63;;;;;;;;;;5032481;28;20032;-65
2023/04/20 08:43:10;;;;;;;2.90;2.13;;;;;;;;;;5051452;28;20032;-65
2023/04/20 08:45:36;;;;;;;8.85;2.42;;;;;;;;;;5031235;28;20082;-65
2023/04/20 08:48:07;;;;;;;2.88;2.00;;;;;;;;;;5031561;28;20037;-65
2023/04/20 08:50:35;;;;;;;12.13;2.22;;;;;;;;;;5048312;28;20027;-66
2023/04/20 08:53:03;;;;;;;3.35;2.15;;;;;;;;;;5055388;28;20032;-65
2023/04/20 08:55:29;;;;;;;4.90;2.20;;;;;;;;;;5052184;28;20029;-65
2023/04/20 08:57:56;;;;;;;5.15;2.28;;;;;;;;;;5049101;28;20033;-66
2023/04/20 09:00:22;;;;;;;5.47;1.92;;;;;;;;;;5050755;28;20033;-66
2023/04/20 09:02:52;;;;;;;4.13;1.80;;;;;;;;;;5050605;28;20029;-66
2023/04/20 09:05:28;;;;;;;6.78;2.05;;;;;;;;;;5050606;28;20052;-66
2023/04/20 09:07:58;;;;;;;7.63;2.13;;;;;;;;;;5050495;28;20604;-66
2023/04/20 09:10:25;;;;;;;3.10;1.63;;;;;;;;;;5049305;28;20043;-66
2023/04/20 09:12:52;;;;;;;7.47;2.00;;;;;;;;;;5050256;28;20490;-65
2023/04/20 09:15:28;;;;;;;2.38;1.50;;;;;;;;;;5050820;28;20025;-65
2023/04/20 09:17:55;;;;;;;4.80;2.15;;;;;;;;;;5050618;28;20508;-66
2023/04/20 09:20:32;;;;;;;8.13;1.70;;;;;;;;;;5050568;28;20031;-65
2023/04/20 09:23:11;;;;;;;7.00;1.90;;;;;;;;;;5050084;28;20021;-65
2023/04/20 09:25:39;;;;;;;8.07;1.95;;;;;;;;;;5049417;28;20025;-65
2023/04/20 09:28:06;;;;;;;2.53;1.90;;;;;;;;;;5049443;28;20029;-66
2023/04/20 09:30:38;;;;;;;4.93;1.73;;;;;;;;;;5050385;28;20048;-66
2023/04/20 09:33:10;;;;;;;4.97;2.10;;;;;;;;;;5050250;28;20067;-66
2023/04/20 09:35:41;;;;;;;3.65;1.83;;;;;;;;;;5050298;28;20023;-65
2023/04/20 09:38:11;;;;;;;2.90;1.85;;;;;;;;;;5050312;28;20366;-66
2023/04/20 09:40:38;;;;;;;3.92;1.63;;;;;;;;;;5040263;28;20409;-65
2023/04/20 09:43:09;;;;;;;2.60;1.80;;;;;;;;;;5043603;28;20033;-65
2023/04/20 09:45:37;;;;;;;3.22;1.70;;;;;;;;;;5050460;28;20497;-66
2023/04/20 09:48:07;;;;;;;3.25;1.70;;;;;;;;;;5048947;28;20062;-65
2023/04/20 09:50:37;;;;;;;6.03;1.80;;;;;;;;;;5050248;28;20037;-66
2023/04/20 09:53:06;;;;;;;3.22;2.00;;;;;;;;;;5050196;28;20047;-65
2023/04/20 09:55:32;;;;;;;2.78;1.55;;;;;;;;;;5049408;28;20402;-66
2023/04/20 09:58:01;;;;;;;2.72;1.75;;;;;;;;;;5044815;28;20024;-66
2023/04/20 10:00:29;;;;;;;7.10;1.70;;;;;;;;;;5047090;28;20528;-66
2023/04/20 10:02:56;;;;;;;2.05;1.35;;;;;;;;;;5050797;28;20507;-66
2023/04/20 10:05:38;;;;;;;2.50;1.75;;;;;;;;;;5054295;28;20025;-66
2023/04/20 10:08:05;;;;;;;3.63;1.50;;;;;;;;;;5054012;28;20033;-65
2023/04/20 10:10:42;;;;;;;2.72;1.60;;;;;;;;;;5042607;28;20041;-66
2023/04/20 10:13:08;;;;;;;5.35;1.40;;;;;;;;;;5048394;28;20029;-66
2023/04/20 10:15:38;;;;;;;1.50;1.33;;;;;;;;;;5053563;28;20035;-66
2023/04/20 10:18:25;;;;;;;2.63;1.50;;;;;;;;;;5053455;28;20043;-65
2023/04/20 10:20:52;;;;;;;4.28;1.60;;;;;;;;;;5053515;28;20047;-65
2023/04/20 10:23:18;;;;;;;2.50;1.33;;;;;;;;;;5053474;28;20024;-66
2023/04/20 10:25:59;;;;;;;2.40;1.40;;;;;;;;;;5053496;28;20501;-65
2023/04/20 10:28:38;;;;;;;1.92;1.30;;;;;;;;;;5054096;28;20051;-66
2023/04/20 10:31:06;;;;;;;4.00;1.50;;;;;;;;;;5053448;28;20029;-66
2023/04/20 10:33:33;;;;;;;3.15;1.30;;;;;;;;;;5053676;28;20654;-66
2023/04/20 10:35:59;;;;;;;3.80;1.42;;;;;;;;;;5051425;28;20135;-65
2023/04/20 10:38:33;;;;;;;2.22;1.20;;;;;;;;;;5053830;28;20023;-66
2023/04/20 10:41:26;;;;;;;2.70;1.20;;;;;;;;;;5053589;28;20112;-65
2023/04/20 10:43:52;;;;;;;3.03;1.38;;;;;;;;;;5051862;28;20045;-66
2023/04/20 10:46:22;;;;;;;1.73;1.25;;;;;;;;;;5053621;28;20021;-66
2023/04/20 10:48:49;;;;;;;1.88;1.15;;;;;;;;;;5052985;28;20025;-66
2023/04/20 10:51:16;;;;;;;3.03;1.20;;;;;;;;;;5052749;28;20032;-66
2023/04/20 10:53:43;;;;;;;3.08;1.90;;;;;;;;;;5052353;28;20707;-66
2023/04/20 10:56:09;;;;;;;1.80;1.00;;;;;;;;;;5053615;28;20090;-65
2023/04/20 10:58:36;;;;;;;2.75;1.35;;;;;;;;;;5053573;28;20027;-66
2023/04/20 11:01:04;;;;;;;2.70;1.15;;;;;;;;;;5053377;28;20398;-66
2023/04/20 11:03:31;;;;;;;1.90;1.27;;;;;;;;;;5053297;28;20074;-66
2023/04/20 11:06:00;;;;;;;2.83;1.30;;;;;;;;;;5053271;28;20028;-65
2023/04/20 11:08:56;;;;;;;1.30;1.00;;;;;;;;;;5053030;28;20028;-66
2023/04/20 11:11:24;;;;;;;2.72;1.30;;;;;;;;;;5048534;28;20047;-65
2023/04/20 11:13:50;;;;;;;2.00;1.20;;;;;;;;;;5052287;28;20036;-66
2023/04/20 11:16:17;;;;;;;2.00;1.10;;;;;;;;;;5053315;28;20027;-66
2023/04/20 11:18:51;;;;;;;3.78;1.27;;;;;;;;;;5051960;28;20029;-65
2023/04/20 11:21:17;;;;;;;2.53;1.00;;;;;;;;;;5052933;28;20035;-65
2023/04/20 11:23:44;;;;;;;3.70;1.10;;;;;;;;;;5053123;28;20029;-65
2023/04/20 11:26:10;;;;;;;1.00;0.90;;;;;;;;;;5052017;28;20037;-65
2023/04/20 11:28:37;;;;;;;1.52;1.15;;;;;;;;;;5053194;28;20037;-65
2023/04/20 11:31:03;;;;;;;1.20;1.10;;;;;;;;;;5053446;28;20027;-65
2023/04/20 11:33:30;;;;;;;3.40;1.17;;;;;;;;;;5051650;28;20031;-65
2023/04/20 11:35:57;;;;;;;2.97;1.10;;;;;;;;;;5051895;28;20025;-65
2023/04/20 11:38:30;;;;;;;1.88;1.20;;;;;;;;;;5051408;28;20051;-65
2023/04/20 11:40:59;;;;;;;2.47;1.00;;;;;;;;;;5051527;28;20028;-65
2023/04/20 11:43:25;;;;;;;3.30;0.90;;;;;;;;;;5052879;28;20037;-64
2023/04/20 11:45:51;;;;;;;1.88;1.00;;;;;;;;;;5052608;28;20021;-65
2023/04/20 11:48:18;;;;;;;1.60;1.23;;;;;;;;;;5052561;28;20393;-63
2023/04/20 11:50:45;;;;;;;2.53;1.17;;;;;;;;;;5052782;28;20025;-63
2023/04/20 11:53:13;;;;;;;2.10;1.23;;;;;;;;;;5051620;28;20047;-66
2023/04/20 11:55:40;;;;;;;6.20;1.83;;;;;;;;;;5052180;28;20078;-65
2023/04/20 11:58:07;;;;;;;2.25;1.10;;;;;;;;;;5052014;28;20028;-65
2023/04/20 12:00:34;;;;;;;1.83;1.20;;;;;;;;;;5051654;28;20469;-64
2023/04/20 12:03:01;;;;;;;2.60;1.27;;;;;;;;;;5052301;28;20036;-65
2023/04/20 12:05:27;;;;;;;4.28;1.05;;;;;;;;;;5052583;28;20021;-64
2023/04/20 12:07:54;;;;;;;2.53;1.40;;;;;;;;;;5051632;28;20028;-64
2023/04/20 12:10:20;;;;;;;2.53;1.35;;;;;;;;;;5052475;28;20031;-64
2023/04/20 12:12:47;;;;;;;1.40;1.20;;;;;;;;;;5050660;28;20051;-65
2023/04/20 12:15:14;;;;;;;2.47;1.45;;;;;;;;;;5051649;28;20027;-65
2023/04/20 12:17:40;;;;;;;1.30;1.10;;;;;;;;;;5051848;28;20013;-65
2023/04/20 12:20:07;;;;;;;2.33;1.08;;;;;;;;;;5050790;28;20037;-64
2023/04/20 12:22:34;;;;;;;2.20;1.25;;;;;;;;;;5051169;28;20029;-65
2023/04/20 12:25:00;;;;;;;2.33;1.27;;;;;;;;;;5050061;28;20025;-65
2023/04/20 12:27:27;;;;;;;2.70;1.27;;;;;;;;;;5051471;28;20031;-64
2023/04/20 12:29:53;;;;;;;3.88;1.30;;;;;;;;;;5050121;28;20505;-65
2023/04/20 12:32:19;;;;;;;6.18;1.50;;;;;;;;;;5050100;28;20033;-65
2023/04/20 12:34:46;;;;;;;5.55;1.48;;;;;;;;;;5051636;28;20032;-65
2023/04/20 12:37:13;;;;;;;3.05;1.42;;;;;;;;;;5051269;28;20029;-65
2023/04/20 12:39:40;;;;;;;2.78;1.40;;;;;;;;;;5051063;28;20028;-65
2023/04/20 12:42:06;;;;;;;3.78;1.30;;;;;;;;;;5050810;28;20040;-65
2023/04/20 12:44:32;;;;;;;2.67;1.50;;;;;;;;;;5050592;28;20507;-65
2023/04/20 12:46:59;;;;;;;3.05;1.23;;;;;;;;;;5050663;28;20021;-64
2023/04/20 12:49:25;;;;;;;6.85;1.17;;;;;;;;;;5051187;28;20033;-64
2023/04/20 12:51:51;;;;;;;5.78;1.48;;;;;;;;;;5050765;28;20025;-65
2023/04/20 12:54:18;;;;;;;2.58;1.60;;;;;;;;;;5050869;28;20024;-65
2023/04/20 12:56:45;;;;;;;2.95;1.45;;;;;;;;;;5050658;28;20039;-65
2023/04/20 12:59:11;;;;;;;3.63;1.60;;;;;;;;;;5050084;28;20490;-65
2023/04/20 13:01:37;;;;;;;2.13;1.20;;;;;;;;;;5048925;28;20055;-65
2023/04/20 13:04:04;;;;;;;2.05;1.10;;;;;;;;;;5050153;28;20033;-65
2023/04/20 13:06:31;;;;;;;2.75;1.83;;;;;;;;;;5049514;28;20031;-65
2023/04/20 13:08:58;;;;;;;4.75;1.35;;;;;;;;;;5050946;28;20028;-64
2023/04/20 13:11:24;;;;;;;3.90;1.60;;;;;;;;;;5050440;28;20025;-64
2023/04/20 13:13:50;;;;;;;4.68;1.50;;;;;;;;;;5049938;28;20044;-63
2023/04/20 13:16:17;;;;;;;2.72;1.40;;;;;;;;;;5051032;28;20029;-65
2023/04/20 13:18:43;;;;;;;3.13;1.60;;;;;;;;;;5050038;28;20029;-65
2023/04/20 13:21:09;;;;;;;3.72;1.63;;;;;;;;;;5050274;28;20036;-64
2023/04/20 13:23:37;;;;;;;1.80;1.20;;;;;;;;;;5050669;28;20020;-63
2023/04/20 13:26:03;;;;;;;2.25;1.60;;;;;;;;;;5051459;28;20025;-64
2023/04/20 13:28:29;;;;;;;6.28;1.52;;;;;;;;;;5049758;28;20078;-64
2023/04/20 13:30:56;;;;;;;3.97;1.40;;;;;;;;;;5050317;28;20027;-65
2023/04/20 13:33:23;;;;;;;4.15;1.52;;;;;;;;;;5049885;28;20078;-65
2023/04/20 13:35:49;;;;;;;3.03;1.20;;;;;;;;;;5050631;28;20078;-65
2023/04/20 13:38:15;;;;;;;2.63;1.20;;;;;;;;;;5050429;28;20023;-64
2023/04/20 13:40:45;;;;;;;1.40;1.30;;;;;;;;;;5050455;28;20039;-64
2023/04/20 13:43:12;;;;;;;2.63;1.35;;;;;;;;;;5050442;28;20028;-65
2023/04/20 13:45:39;;;;;;;4.75;1.40;;;;;;;;;;5050777;28;20024;-65
2023/04/20 13:48:05;;;;;;;3.42;1.50;;;;;;;;;;5050162;28;20037;-65
2023/04/20 13:50:31;;;;;;;3.47;1.63;;;;;;;;;;5049693;28;20014;-65
2023/04/20 13:52:58;;;;;;;4.20;1.40;;;;;;;;;;5049102;28;20021;-65
2023/04/20 13:55:24;;;;;;;6.10;1.40;;;;;;;;;;5048696;28;20035;-65
2023/04/20 13:57:50;;;;;;;4.65;1.70;;;;;;;;;;5050008;28;20059;-65
2023/04/20 14:00:17;;;;;;;8.95;1.20;;;;;;;;;;5050418;28;20028;-65
2023/04/20 14:02:43;;;;;;;6.75;1.42;;;;;;;;;;5049650;28;20044;-64
2023/04/20 14:05:10;;;;;;;4.90;1.50;;;;;;;;;;5049997;28;20025;-65
2023/04/20 14:07:37;;;;;;;2.22;1.25;;;;;;;;;;5051819;28;20021;-64
2023/04/20 14:10:03;;;;;;;3.00;1.20;;;;;;;;;;5049720;28;20028;-64
2023/04/20 14:12:30;;;;;;;2.50;1.42;;;;;;;;;;5048677;28;20550;-64
2023/04/20 14:14:57;;;;;;;1.90;1.55;;;;;;;;;;5050202;28;20029;-64
2023/04/20 14:17:23;;;;;;;1.30;1.20;;;;;;;;;;5049083;28;20515;-65
2023/04/20 14:19:50;;;;;;;3.70;1.23;;;;;;;;;;5050495;28;20040;-65
2023/04/20 14:22:16;;;;;;;2.65;1.45;;;;;;;;;;5049298;28;20066;-65
2023/04/20 14:24:47;;;;;;;1.60;1.50;;;;;;;;;;5047685;28;20029;-65
2023/04/20 14:27:13;;;;;;;4.40;1.48;;;;;;;;;;5049502;28;20029;-65
2023/04/20 14:29:40;;;;;;;5.10;1.60;;;;;;;;;;5049421;28;20048;-65
2023/04/20 14:32:06;;;;;;;3.90;1.40;;;;;;;;;;5049917;28;20029;-65
2023/04/20 14:34:32;;;;;;;1.98;1.20;;;;;;;;;;5050001;28;20070;-65
2023/04/20 14:36:59;;;;;;;2.78;1.42;;;;;;;;;;5049869;28;20387;-65
2023/04/20 14:39:25;;;;;;;3.70;1.10;;;;;;;;;;5048246;28;20033;-65
2023/04/20 14:41:52;;;;;;;5.55;1.58;;;;;;;;;;5049693;28;20044;-65